createdAt,value
2019-03-27T00:00:40.728Z,1.13
2019-03-27T00:03:11.770Z,0.90
2019-03-27T00:05:42.803Z,1.00
2019-03-27T00:08:13.850Z,0.90
2019-03-27T00:10:44.899Z,1.00
2019-03-27T00:13:15.938Z,1.20
2019-03-27T00:15:46.952Z,1.00
2019-03-27T00:18:20.394Z,0.80
2019-03-27T00:20:51.387Z,0.90
2019-03-27T00:23:22.842Z,1.30
2019-03-27T00:25:53.959Z,0.87
2019-03-27T00:28:24.946Z,1.30
2019-03-27T00:30:55.990Z,1.03
2019-03-27T00:33:27.024Z,1.17
2019-03-27T00:35:58.110Z,0.87
2019-03-27T00:38:29.162Z,1.00
2019-03-27T00:41:00.214Z,1.10
2019-03-27T00:43:31.259Z,0.90
2019-03-27T00:46:02.593Z,1.27
2019-03-27T00:48:33.611Z,1.33
2019-03-27T00:51:04.694Z,1.10
2019-03-27T00:53:35.794Z,1.00
2019-03-27T00:56:06.819Z,0.90
2019-03-27T00:58:38.470Z,1.03
2019-03-27T01:01:12.214Z,0.90
2019-03-27T01:03:43.355Z,0.90
2019-03-27T01:06:14.726Z,1.20
2019-03-27T01:08:45.744Z,1.03
2019-03-27T01:11:19.511Z,1.03
2019-03-27T01:13:51.818Z,1.20
2019-03-27T01:16:22.941Z,1.03
2019-03-27T01:18:54.543Z,1.40
2019-03-27T01:21:27.551Z,0.77
2019-03-27T01:23:58.629Z,0.97
2019-03-27T01:26:29.659Z,0.90
2019-03-27T01:29:01.556Z,0.83
2019-03-27T01:31:33.006Z,0.90
2019-03-27T01:34:04.030Z,0.80
2019-03-27T01:36:35.113Z,0.97
2019-03-27T01:39:07.535Z,0.90
2019-03-27T01:41:38.614Z,0.90
2019-03-27T01:44:09.745Z,0.97
2019-03-27T01:46:41.059Z,0.90
2019-03-27T01:49:12.143Z,1.30
2019-03-27T01:51:43.287Z,1.03
2019-03-27T01:54:14.334Z,1.20
2019-03-27T01:56:45.942Z,1.20
2019-03-27T01:59:17.148Z,1.00
2019-03-27T02:01:49.696Z,1.10
2019-03-27T02:04:20.769Z,1.03
2019-03-27T02:06:51.811Z,1.00
2019-03-27T02:09:22.882Z,1.60
2019-03-27T02:11:53.919Z,1.40
2019-03-27T02:14:25.055Z,1.63
2019-03-27T02:16:56.091Z,1.50
2019-03-27T02:19:27.206Z,1.63
2019-03-27T02:21:58.247Z,2.00
2019-03-27T02:24:29.379Z,2.37
2019-03-27T02:27:02.142Z,2.37
2019-03-27T02:29:37.972Z,2.17
2019-03-27T02:32:11.031Z,2.50
2019-03-27T02:34:45.526Z,2.20
2019-03-27T02:37:16.910Z,2.30
2019-03-27T02:39:48.604Z,2.87
2019-03-27T02:42:19.670Z,2.77
2019-03-27T02:44:50.718Z,2.43
2019-03-27T02:50:55.662Z,2.43
2019-03-27T02:53:56.826Z,2.93
2019-03-27T02:56:39.278Z,2.63
2019-03-27T02:59:21.035Z,2.90
2019-03-27T03:04:47.113Z,3.00
2019-03-27T03:07:29.610Z,2.60
2019-03-27T03:10:11.388Z,2.87
2019-03-27T03:21:58.445Z,2.77
2019-03-27T03:24:40.980Z,3.03
2019-03-27T03:27:23.748Z,2.67
2019-03-27T03:30:05.997Z,3.00
2019-03-27T03:32:48.464Z,3.17
2019-03-27T03:35:30.422Z,3.53
2019-03-27T03:38:13.897Z,3.10
2019-03-27T03:40:55.611Z,3.53
2019-03-27T03:43:38.072Z,3.57
2019-03-27T03:46:20.490Z,3.33
2019-03-27T03:51:52.283Z,4.27
2019-03-27T03:54:34.284Z,3.77
2019-03-27T03:57:16.671Z,3.67
2019-03-27T03:59:59.104Z,3.87
2019-03-27T04:02:41.390Z,4.47
2019-03-27T04:05:15.699Z,4.47
2019-03-27T04:11:12.567Z,4.50
2019-03-27T04:13:55.069Z,4.20
2019-03-27T04:16:37.415Z,4.00
2019-03-27T04:19:19.376Z,4.80
2019-03-27T04:22:01.861Z,4.57
2019-03-27T04:24:44.527Z,4.97
2019-03-27T04:27:26.656Z,4.30
2019-03-27T04:30:08.953Z,4.50
2019-03-27T04:32:39.896Z,4.43
2019-03-27T04:38:32.548Z,5.47
2019-03-27T04:43:59.686Z,4.43
2019-03-27T04:46:42.072Z,4.37
2019-03-27T04:49:24.769Z,4.70
2019-03-27T04:52:07.359Z,5.03
2019-03-27T04:54:50.037Z,4.37
2019-03-27T05:00:18.245Z,4.80
2019-03-27T05:05:50.103Z,4.77
2019-03-27T05:08:32.322Z,4.33
2019-03-27T05:11:14.387Z,4.13
2019-03-27T05:13:57.109Z,4.20
2019-03-27T05:16:42.522Z,4.13
2019-03-27T05:19:24.811Z,3.93
2019-03-27T05:22:07.023Z,4.10
2019-03-27T05:24:49.561Z,4.00
2019-03-27T05:27:31.919Z,3.93
2019-03-27T05:30:14.146Z,3.87
2019-03-27T05:32:57.915Z,3.33
2019-03-27T05:35:39.788Z,3.67
2019-03-27T05:38:10.899Z,3.60
2019-03-27T05:43:57.080Z,3.50
2019-03-27T05:46:28.147Z,2.67
2019-03-27T05:49:00.654Z,3.23
2019-03-27T05:51:33.291Z,3.40
2019-03-27T05:54:04.644Z,2.80
2019-03-27T05:56:35.739Z,3.03
2019-03-27T05:59:06.787Z,3.10
2019-03-27T06:01:37.930Z,2.70
2019-03-27T06:04:08.992Z,2.80
2019-03-27T06:06:41.437Z,2.57
2019-03-27T06:09:12.497Z,2.60
2019-03-27T06:11:43.575Z,2.93
2019-03-27T06:14:14.664Z,2.60
2019-03-27T06:16:45.703Z,2.40
2019-03-27T06:19:17.278Z,2.57
2019-03-27T06:21:48.790Z,2.47
2019-03-27T06:24:20.191Z,2.57
2019-03-27T06:26:51.287Z,2.60
2019-03-27T06:29:22.379Z,2.30
2019-03-27T06:31:53.781Z,2.13
2019-03-27T06:34:25.396Z,3.17
2019-03-27T06:36:56.773Z,2.00
2019-03-27T06:39:27.855Z,2.70
2019-03-27T06:41:58.942Z,3.10
2019-03-27T06:44:29.972Z,2.20
2019-03-27T06:47:01.525Z,2.10
2019-03-27T06:49:32.963Z,1.80
2019-03-27T06:52:04.578Z,1.73
2019-03-27T06:54:35.642Z,1.73
2019-03-27T06:57:06.729Z,1.90
2019-03-27T06:59:37.807Z,2.17
2019-03-27T07:02:09.786Z,2.15
2019-03-27T07:04:45.292Z,1.93
2019-03-27T07:07:15.627Z,1.80
2019-03-27T07:09:49.807Z,1.73
2019-03-27T07:12:21.591Z,1.50
2019-03-27T07:14:52.769Z,1.33
2019-03-27T07:17:23.844Z,1.37
2019-03-27T07:19:54.928Z,1.50
2019-03-27T07:22:26.007Z,1.33
2019-03-27T07:24:57.095Z,1.80
2019-03-27T07:27:28.128Z,3.33
2019-03-27T07:29:59.506Z,2.20
2019-03-27T07:32:30.598Z,1.40
2019-03-27T07:35:01.688Z,1.50
2019-03-27T07:37:32.745Z,1.50
2019-03-27T07:40:04.348Z,1.60
2019-03-27T07:42:35.415Z,1.50
2019-03-27T07:45:06.964Z,1.20
2019-03-27T07:47:38.391Z,1.60
2019-03-27T07:50:10.550Z,1.30
2019-03-27T07:52:42.017Z,1.40
2019-03-27T07:55:19.211Z,1.10
2019-03-27T07:57:45.871Z,1.40
2019-03-27T08:00:18.525Z,1.27
2019-03-27T08:02:50.001Z,1.30
2019-03-27T08:05:21.488Z,1.60
2019-03-27T08:07:52.519Z,1.10
2019-03-27T08:10:24.220Z,1.30
2019-03-27T08:12:56.770Z,1.20
2019-03-27T08:15:27.861Z,1.10
2019-03-27T08:17:58.911Z,1.00
2019-03-27T08:20:29.999Z,0.80
2019-03-27T08:23:01.518Z,0.80
2019-03-27T08:25:32.555Z,0.70
2019-03-27T08:28:03.607Z,0.40
2019-03-27T08:30:35.311Z,0.40
2019-03-27T08:33:07.497Z,0.60
2019-03-27T08:35:38.643Z,0.40
2019-03-27T08:38:11.323Z,0.40
2019-03-27T08:40:42.518Z,0.37
2019-03-27T08:43:21.137Z,0.40
2019-03-27T08:45:47.698Z,0.40
2019-03-27T08:48:18.782Z,0.50
2019-03-27T08:50:51.004Z,0.30
2019-03-27T08:53:22.125Z,0.50
2019-03-27T08:55:53.334Z,0.30
2019-03-27T08:58:26.415Z,0.20
2019-03-27T09:00:57.492Z,0.40
2019-03-27T09:03:28.593Z,0.20
2019-03-27T09:06:00.698Z,0.30
2019-03-27T09:08:31.796Z,0.30
2019-03-27T09:11:04.792Z,0.33
2019-03-27T09:13:36.063Z,0.30
2019-03-27T09:16:07.931Z,0.20
2019-03-27T09:18:38.973Z,0.30
2019-03-27T09:21:10.235Z,0.30
2019-03-27T09:23:41.297Z,0.20
2019-03-27T09:26:12.340Z,0.40
2019-03-27T09:28:43.372Z,0.40
2019-03-27T09:31:14.442Z,0.30
2019-03-27T09:33:45.483Z,0.20
2019-03-27T09:36:19.354Z,0.47
2019-03-27T09:38:50.408Z,0.47
2019-03-27T09:41:21.696Z,0.30
2019-03-27T09:43:52.799Z,0.30
2019-03-27T09:46:26.939Z,0.30
2019-03-27T09:48:58.107Z,0.30
2019-03-27T09:51:29.264Z,0.30
2019-03-27T09:54:00.335Z,0.30
2019-03-27T09:56:31.835Z,0.33
2019-03-27T09:59:05.938Z,0.40
2019-03-27T10:01:37.041Z,0.30
2019-03-27T10:04:08.141Z,0.20
2019-03-27T10:06:39.219Z,0.30
2019-03-27T10:09:10.284Z,0.40
2019-03-27T10:11:41.363Z,0.30
2019-03-27T10:14:12.415Z,0.40
2019-03-27T10:16:43.483Z,0.50
2019-03-27T10:19:14.539Z,0.33
2019-03-27T10:21:46.059Z,0.30
2019-03-27T10:24:17.259Z,0.60
2019-03-27T10:26:48.438Z,0.47
2019-03-27T10:29:19.539Z,0.40
2019-03-27T10:31:50.626Z,0.30
2019-03-27T10:34:21.719Z,0.40
2019-03-27T10:36:53.171Z,0.20
2019-03-27T10:39:25.595Z,0.50
2019-03-27T10:41:57.326Z,0.80
2019-03-27T10:44:28.446Z,0.50
2019-03-27T10:46:59.836Z,0.40
2019-03-27T10:49:34.149Z,0.40
2019-03-27T10:52:04.408Z,0.50
2019-03-27T10:54:35.855Z,0.60
2019-03-27T10:57:06.908Z,0.50
2019-03-27T10:59:37.999Z,0.50
2019-03-27T11:02:09.083Z,0.60
2019-03-27T11:04:40.906Z,0.60
2019-03-27T11:07:12.297Z,0.50
2019-03-27T11:09:43.371Z,0.50
2019-03-27T11:12:15.537Z,0.30
2019-03-27T11:14:47.107Z,0.40
2019-03-27T11:17:19.533Z,0.40
2019-03-27T11:19:51.398Z,0.60
2019-03-27T11:22:23.942Z,0.40
2019-03-27T11:24:57.221Z,0.30
2019-03-27T11:27:28.917Z,0.50
2019-03-27T11:30:00.016Z,0.50
2019-03-27T11:32:31.087Z,0.30
2019-03-27T11:35:02.135Z,0.50
2019-03-27T11:37:34.871Z,0.60
2019-03-27T11:40:07.712Z,0.50
2019-03-27T11:42:38.766Z,0.40
2019-03-27T11:45:10.226Z,0.50
2019-03-27T11:47:41.255Z,0.30
2019-03-27T11:50:13.580Z,0.50
2019-03-27T11:52:45.712Z,0.63
2019-03-27T11:55:17.573Z,0.70
2019-03-27T11:57:49.674Z,0.60
2019-03-27T12:00:23.683Z,0.53
2019-03-27T12:02:55.436Z,0.50
2019-03-27T12:05:26.514Z,0.80
2019-03-27T12:08:01.146Z,0.80
2019-03-27T12:10:32.661Z,0.60
2019-03-27T12:13:04.659Z,0.60
2019-03-27T12:15:42.061Z,0.50
2019-03-27T12:18:15.964Z,0.40
2019-03-27T12:20:58.355Z,0.60
2019-03-27T12:23:21.106Z,0.37
2019-03-27T12:25:55.170Z,0.40
2019-03-27T12:28:25.921Z,0.90
2019-03-27T12:30:57.073Z,0.70
2019-03-27T12:33:28.688Z,0.80
2019-03-27T12:36:00.155Z,0.90
2019-03-27T12:38:31.223Z,0.90
2019-03-27T12:41:03.246Z,0.90
2019-03-27T12:43:34.798Z,0.90
2019-03-27T12:46:07.806Z,1.00
2019-03-27T12:48:38.873Z,1.00
2019-03-27T12:51:13.208Z,0.90
2019-03-27T12:53:43.089Z,0.70
2019-03-27T12:56:14.841Z,0.70
2019-03-27T12:58:46.687Z,0.97
2019-03-27T13:01:17.767Z,0.97
2019-03-27T13:03:48.845Z,1.00
2019-03-27T13:06:19.909Z,0.80
2019-03-27T13:08:51.336Z,0.70
2019-03-27T13:11:25.972Z,0.80
2019-03-27T13:13:57.084Z,0.90
2019-03-27T13:16:28.530Z,0.90
2019-03-27T13:18:59.580Z,0.60
2019-03-27T13:21:30.712Z,0.70
2019-03-27T13:24:02.704Z,0.60
2019-03-27T13:26:33.810Z,0.70
2019-03-27T13:29:04.884Z,0.77
2019-03-27T13:31:37.075Z,0.73
2019-03-27T13:34:08.158Z,0.60
2019-03-27T13:36:41.646Z,0.80
2019-03-27T13:39:13.267Z,0.70
2019-03-27T13:41:44.349Z,0.90
2019-03-27T13:44:16.239Z,0.83
2019-03-27T13:46:47.559Z,0.80
2019-03-27T13:49:20.521Z,0.60
2019-03-27T13:51:52.392Z,0.60
2019-03-27T13:54:24.292Z,0.80
2019-03-27T13:56:55.813Z,0.60
2019-03-27T13:59:27.215Z,0.43
2019-03-27T14:01:58.741Z,0.60
2019-03-27T14:04:30.719Z,0.30
2019-03-27T14:07:02.865Z,0.47
2019-03-27T14:09:35.106Z,0.60
2019-03-27T14:12:06.941Z,0.50
2019-03-27T14:14:49.681Z,0.50
2019-03-27T14:17:11.272Z,0.77
2019-03-27T14:19:42.694Z,0.90
2019-03-27T14:22:14.359Z,0.50
2019-03-27T14:24:46.509Z,0.63
2019-03-27T14:27:18.075Z,0.60
2019-03-27T14:29:50.067Z,0.60
2019-03-27T14:32:22.558Z,0.70
2019-03-27T14:34:54.045Z,0.50
2019-03-27T14:37:25.283Z,0.47
2019-03-27T14:39:57.329Z,0.60
2019-03-27T14:42:29.290Z,0.50
2019-03-27T14:45:00.398Z,0.60
2019-03-27T14:47:32.439Z,0.50
2019-03-27T14:50:04.507Z,0.60
2019-03-27T14:52:36.147Z,0.50
2019-03-27T14:55:09.619Z,0.47
2019-03-27T14:57:41.547Z,0.60
2019-03-27T15:00:13.159Z,0.50
2019-03-27T15:02:44.822Z,0.43
2019-03-27T15:05:16.439Z,0.50
2019-03-27T15:07:48.030Z,0.50
2019-03-27T15:10:19.664Z,0.50
2019-03-27T15:12:51.123Z,0.40
2019-03-27T15:15:22.410Z,0.50
2019-03-27T15:17:53.919Z,0.50
2019-03-27T15:20:25.896Z,0.60
2019-03-27T15:22:57.837Z,0.43
2019-03-27T15:25:32.387Z,0.47
2019-03-27T15:28:03.887Z,0.50
2019-03-27T15:30:35.543Z,0.60
2019-03-27T15:33:07.011Z,0.60
2019-03-27T15:35:38.099Z,0.60
2019-03-27T15:38:09.665Z,0.43
2019-03-27T15:40:46.227Z,0.50
2019-03-27T15:43:17.330Z,0.60
2019-03-27T15:45:49.423Z,0.60
2019-03-27T15:48:20.495Z,0.75
2019-03-27T15:50:57.096Z,0.50
2019-03-27T15:53:24.311Z,0.90
2019-03-27T15:55:55.714Z,0.70
2019-03-27T15:58:26.953Z,0.80
2019-03-27T16:00:59.772Z,0.80
2019-03-27T16:03:31.315Z,0.97
2019-03-27T16:06:02.900Z,0.80
2019-03-27T16:08:33.995Z,0.83
2019-03-27T16:11:06.413Z,1.00
2019-03-27T16:13:38.730Z,0.97
2019-03-27T16:16:10.281Z,1.17
2019-03-27T16:18:41.616Z,1.10
2019-03-27T16:21:14.081Z,1.10
2019-03-27T16:23:46.015Z,1.00
2019-03-27T16:26:18.440Z,1.00
2019-03-27T16:28:49.804Z,1.10
2019-03-27T16:31:20.882Z,1.20
2019-03-27T16:33:52.486Z,1.10
2019-03-27T16:36:23.570Z,1.10
2019-03-27T16:38:55.341Z,0.93
2019-03-27T16:41:27.049Z,0.83
2019-03-27T16:43:58.718Z,1.20
2019-03-27T17:13:34.329Z,1.73
2019-03-27T17:16:16.747Z,1.20
2019-03-27T17:18:59.968Z,1.43
2019-03-27T17:24:57.848Z,1.57
2019-03-27T17:27:41.868Z,1.30
2019-03-27T17:33:14.827Z,1.60
2019-03-27T17:35:57.223Z,1.73
2019-03-27T17:38:58.168Z,1.40
2019-03-27T17:48:32.211Z,1.87
2019-03-27T17:58:09.122Z,1.60
2019-03-27T18:17:16.475Z,1.70
2019-03-27T18:19:59.104Z,1.60
2019-03-27T18:22:44.791Z,1.50
2019-03-27T18:25:28.477Z,1.13
2019-03-27T18:28:11.295Z,1.50
2019-03-27T18:30:53.652Z,1.03
2019-03-27T18:33:36.324Z,1.10
2019-03-27T18:36:18.678Z,1.00
2019-03-27T18:39:00.449Z,1.30
2019-03-27T18:41:43.409Z,1.73
2019-03-27T18:50:45.796Z,2.30
2019-03-27T18:53:28.132Z,1.70
2019-03-27T18:56:11.278Z,1.13
2019-03-27T18:58:53.419Z,1.60
2019-03-27T19:01:54.908Z,1.40
2019-03-27T19:04:37.437Z,2.30
2019-03-27T19:07:38.927Z,2.10
2019-03-27T19:10:10.150Z,1.53
2019-03-27T19:13:00.327Z,1.20
2019-03-27T19:16:02.219Z,1.30
2019-03-27T19:22:09.924Z,1.30
2019-03-27T19:24:51.877Z,1.70
2019-03-27T19:27:33.907Z,1.63
2019-03-27T19:30:16.373Z,1.40
2019-03-27T19:32:59.159Z,2.00
2019-03-27T19:35:30.731Z,1.73
2019-03-27T19:51:59.987Z,4.90
2019-03-27T19:54:42.455Z,1.80
2019-03-27T19:57:13.487Z,1.80
2019-03-27T20:03:18.102Z,1.50
2019-03-27T20:06:22.358Z,1.30
2019-03-27T20:09:03.663Z,1.73
2019-03-27T20:11:46.369Z,1.30
2019-03-27T20:14:28.836Z,1.63
2019-03-27T20:17:14.827Z,2.10
2019-03-27T20:19:57.695Z,1.90
2019-03-27T20:22:39.634Z,1.53
2019-03-27T20:28:47.647Z,1.53
2019-03-27T20:31:49.291Z,1.90
2019-03-27T20:34:57.470Z,4.83
2019-03-27T20:41:02.855Z,2.50
2019-03-27T20:43:44.988Z,2.50
2019-03-27T20:46:29.285Z,2.43
2019-03-27T20:49:10.511Z,2.00
2019-03-27T20:51:54.795Z,1.80
2019-03-27T20:54:53.879Z,1.73
2019-03-27T20:57:24.698Z,1.75
2019-03-27T21:00:07.037Z,2.10
2019-03-27T21:02:48.887Z,1.77
2019-03-27T21:05:30.991Z,2.27
2019-03-27T21:11:22.011Z,1.77
2019-03-27T21:14:04.772Z,2.20
2019-03-27T21:16:46.727Z,2.00
2019-03-27T21:19:27.424Z,2.20
2019-03-27T21:22:17.595Z,2.30
2019-03-27T21:25:08.462Z,3.53
2019-03-27T21:27:43.199Z,3.70
2019-03-27T21:34:26.655Z,2.60
2019-03-27T21:40:37.007Z,2.90
2019-03-27T21:43:07.922Z,2.00
2019-03-27T21:45:57.686Z,2.50
2019-03-27T21:48:59.203Z,2.50
2019-03-27T21:51:41.000Z,2.90
2019-03-27T21:54:24.587Z,2.47
2019-03-27T22:00:45.686Z,3.60
2019-03-27T22:03:16.567Z,3.83
2019-03-27T22:12:52.005Z,3.23
2019-03-27T22:15:34.319Z,2.73
2019-03-27T22:18:15.026Z,2.73
2019-03-27T22:24:12.165Z,4.47
2019-03-27T22:27:00.039Z,3.43
2019-03-27T22:29:43.080Z,2.70
2019-03-27T22:32:25.059Z,2.70
2019-03-27T22:35:07.738Z,2.80
2019-03-27T22:37:49.419Z,2.87
2019-03-27T22:40:30.232Z,3.33
2019-03-27T22:46:53.254Z,2.77
2019-03-27T22:49:57.803Z,3.00
2019-03-27T22:52:39.674Z,3.73
2019-03-27T22:58:44.543Z,2.80
2019-03-27T23:01:53.747Z,3.57
2019-03-27T23:04:54.935Z,3.20
2019-03-27T23:07:37.232Z,3.23
2019-03-27T23:10:19.042Z,3.23
2019-03-27T23:13:01.103Z,2.77
2019-03-27T23:15:44.274Z,3.03
2019-03-27T23:18:26.999Z,3.73
2019-03-27T23:21:07.748Z,3.97
2019-03-27T23:26:59.535Z,3.60
2019-03-27T23:29:41.651Z,3.57
2019-03-27T23:32:22.358Z,5.23
2019-03-27T23:38:18.679Z,4.37
2019-03-27T23:44:10.809Z,3.40
2019-03-27T23:46:53.392Z,3.50
2019-03-27T23:49:24.311Z,4.40
2019-03-27T23:58:26.706Z,5.57
